ZSPD/PVG METAR and TAF weather

Enter ICAO airport designator
Station Type Date Time Source
ZSPD METAR 2020/06/01 15:00 UTC NOAA

ZSPD 011500Z 17003MPS CAVOK 21/18 Q1011 NOSIG


Station Type Date Time Source
ZSPD Decoded METAR 2020/06/01 15:00 UTC NOAA

Shanghai / Pudong, China (ZSPD) 31-07N 121-46E
Jun 01, 2020 - 11:00 AM EDT / 2020.06.01 1500 UTC
Wind: from the S (170 degrees) at 7 MPH (6 KT):0
Visibility: greater than 7 mile(s):0
Temperature: 69 F (21 C)
Dew Point: 64 F (18 C)
Relative Humidity: 82%
Pressure (altimeter): 29.85 in. Hg (1011 hPa)
ob: ZSPD 011500Z 17003MPS CAVOK 21/18 Q1011 NOSIG
cycle: 15

Station Type Date Time Source
ZSPD TAF 2020/06/01 12:03 UTC NOAA

TAF ZSPD 010908Z 0112/0212 17004MPS 6000 BKN016 TX29/0206Z TN20/0121Z

Example: see airport list